KFFA

First Flight Airport

Kill Devil Hills, North Carolina, USA
METAR KFFA 271130Z AUTO 23007KT 10SM CLR 24/22 A3001 RMK AO2 T02350218
Observed Flight Rules
May-27 @ 11:30 UTC (36 minutes ago) Visual Flight Rules
Wind Visibility Clouds
230° at 7 knots 10 miles
  • Clear skies
Temperatures Readings
Current 24°C / 75°F
Dewpoint 22°C / 72°F
Humidity 89%
Altimeter 30.01" Hg
Pressure 1016 hPa
Elevation 4
METAR KFFA 271130Z AUTO 23007KT 10SM CLR 24/22 A3001 RMK AO2 T02350218
Observed Flight Rules
May-27 @ 11:30 UTC
(36 minutes ago)
VFR
Wind Visibility
230° at 7 knots 10 miles
Clouds
  • Clear skies
Temperature Dewpoint
24°C / 75°F 22°C / 72°F
Humidity Altimeter Pressure
89% 30.01" Hg 1016 hPa